createdAt,value
2019-04-29T00:00:01.395Z,7.8
2019-04-29T00:01:13.176Z,7.8
2019-04-29T00:01:49.354Z,7.8
2019-04-29T00:02:25.532Z,7.7
2019-04-29T00:03:00.670Z,7.7
2019-04-29T00:04:43.950Z,7.7
2019-04-29T00:05:18.667Z,7.7
2019-04-29T00:05:53.163Z,7.7
2019-04-29T00:06:27.766Z,7.7
2019-04-29T00:07:02.347Z,7.7
2019-04-29T00:08:11.558Z,7.7
2019-04-29T00:08:46.204Z,7.7
2019-04-29T00:09:20.797Z,7.7
2019-04-29T00:09:55.353Z,7.7
2019-04-29T00:10:29.958Z,7.7
2019-04-29T00:12:15.884Z,7.6
2019-04-29T00:12:51.590Z,7.6
2019-04-29T00:13:27.180Z,7.6
2019-04-29T00:14:02.887Z,7.6
2019-04-29T00:15:13.603Z,7.5
2019-04-29T00:15:48.211Z,7.5
2019-04-29T00:16:23.260Z,7.5
2019-04-29T00:16:57.441Z,7.5
2019-04-29T00:17:32.018Z,7.5
2019-04-29T00:19:15.832Z,7.5
2019-04-29T00:19:50.473Z,7.5
2019-04-29T00:20:25.073Z,7.5
2019-04-29T00:20:59.655Z,7.5
2019-04-29T00:21:34.256Z,7.5
2019-04-29T00:22:43.451Z,7.4
2019-04-29T00:23:19.088Z,7.4
2019-04-29T00:24:03.500Z,7.4
2019-04-29T00:24:30.407Z,7.5
2019-04-29T00:25:04.999Z,7.5
2019-04-29T00:26:14.206Z,7.5
2019-04-29T00:26:48.824Z,7.5
2019-04-29T00:27:24.041Z,7.5
2019-04-29T00:27:58.040Z,7.5
2019-04-29T00:28:32.619Z,7.5
2019-04-29T00:29:41.830Z,7.5
2019-04-29T00:30:16.480Z,7.5
2019-04-29T00:30:51.039Z,7.5
2019-04-29T00:31:26.166Z,7.6
2019-04-29T00:32:02.340Z,7.6
2019-04-29T00:33:14.153Z,7.6
2019-04-29T00:33:50.332Z,7.6
2019-04-29T00:34:25.979Z,7.6
2019-04-29T00:35:02.194Z,7.6
2019-04-29T00:36:13.991Z,7.6
2019-04-29T00:37:26.357Z,7.6
2019-04-29T00:38:02.156Z,7.6
2019-04-29T00:39:13.283Z,7.7
2019-04-29T00:39:47.908Z,7.7
2019-04-29T00:40:22.499Z,7.7
2019-04-29T00:40:57.119Z,7.7
2019-04-29T00:41:31.738Z,7.7
2019-04-29T00:43:15.518Z,7.8
2019-04-29T00:43:51.205Z,7.7
2019-04-29T00:44:26.358Z,7.7
2019-04-29T00:45:01.451Z,7.8
2019-04-29T00:46:13.246Z,7.7
2019-04-29T00:46:48.367Z,7.7
2019-04-29T00:47:22.998Z,7.7
2019-04-29T00:47:58.126Z,7.7
2019-04-29T00:48:33.265Z,7.7
2019-04-29T00:49:44.075Z,7.7
2019-04-29T00:50:18.101Z,7.7
2019-04-29T00:50:53.240Z,7.7
2019-04-29T00:51:28.360Z,7.7
2019-04-29T00:52:02.950Z,7.7
2019-04-29T00:53:13.217Z,7.7
2019-04-29T00:53:48.367Z,7.7
2019-04-29T00:54:22.960Z,7.7
2019-04-29T00:54:58.068Z,7.7
2019-04-29T00:55:33.193Z,7.7
2019-04-29T00:56:42.937Z,7.7
2019-04-29T00:57:18.055Z,7.7
2019-04-29T00:57:53.175Z,7.7
2019-04-29T00:58:28.341Z,7.7
2019-04-29T00:59:02.902Z,7.7
2019-04-29T01:00:13.176Z,7.7
2019-04-29T01:00:49.397Z,7.7
2019-04-29T01:01:22.930Z,7.7
2019-04-29T01:01:58.015Z,7.7
2019-04-29T01:02:33.174Z,7.7
2019-04-29T01:03:43.419Z,7.7
2019-04-29T01:04:18.005Z,7.7
2019-04-29T01:04:53.129Z,7.7
2019-04-29T01:05:28.255Z,7.7
2019-04-29T01:06:03.418Z,7.7
2019-04-29T01:07:13.132Z,7.7
2019-04-29T01:07:48.248Z,7.7
2019-04-29T01:08:23.406Z,7.7
2019-04-29T01:08:57.986Z,7.7
2019-04-29T01:09:33.104Z,7.7
2019-04-29T01:10:43.354Z,7.7
2019-04-29T01:11:17.952Z,7.6
2019-04-29T01:11:54.131Z,7.6
2019-04-29T01:12:30.328Z,7.6
2019-04-29T01:13:06.001Z,7.6
2019-04-29T01:13:42.154Z,7.6
2019-04-29T01:14:18.343Z,7.6
2019-04-29T01:14:53.976Z,7.6
2019-04-29T01:15:30.155Z,7.6
2019-04-29T01:16:06.341Z,7.6
2019-04-29T01:16:42.006Z,7.6
2019-04-29T01:17:18.161Z,7.6
2019-04-29T01:17:54.323Z,7.6
2019-04-29T01:18:29.956Z,7.6
2019-04-29T01:19:06.140Z,7.6
2019-04-29T01:19:42.340Z,7.6
2019-04-29T01:20:17.998Z,7.6
2019-04-29T01:20:54.182Z,7.6
2019-04-29T01:21:30.323Z,7.6
2019-04-29T01:22:05.981Z,7.6
2019-04-29T01:22:43.239Z,7.5
2019-04-29T01:23:17.289Z,7.5
2019-04-29T01:23:51.883Z,7.5
2019-04-29T01:24:27.045Z,7.5
2019-04-29T01:25:02.218Z,7.5
2019-04-29T01:25:37.268Z,7.6
2019-04-29T01:26:12.919Z,7.6
2019-04-29T01:27:24.223Z,7.7
2019-04-29T01:27:59.342Z,7.7
2019-04-29T01:28:33.963Z,7.6
2019-04-29T01:29:45.242Z,7.6
2019-04-29T01:30:20.920Z,7.6
2019-04-29T01:30:56.609Z,7.6
2019-04-29T01:31:32.241Z,7.6
2019-04-29T01:32:43.527Z,7.6
2019-04-29T01:33:18.773Z,7.7
2019-04-29T01:33:53.257Z,7.7
2019-04-29T01:34:27.859Z,7.7
2019-04-29T01:35:02.461Z,7.7
2019-04-29T01:35:37.055Z,7.7
2019-04-29T01:36:11.654Z,7.7
2019-04-29T01:37:20.904Z,7.7
2019-04-29T01:37:55.466Z,7.7
2019-04-29T01:38:30.074Z,7.7
2019-04-29T01:39:04.662Z,7.7
2019-04-29T01:40:13.864Z,7.7
2019-04-29T01:40:48.470Z,7.7
2019-04-29T01:41:23.066Z,7.7
2019-04-29T01:41:57.761Z,7.7
2019-04-29T01:42:32.351Z,7.7
2019-04-29T01:43:42.545Z,7.7
2019-04-29T01:44:17.326Z,7.8
2019-04-29T01:44:53.326Z,7.8
2019-04-29T01:45:29.485Z,7.8
2019-04-29T01:46:05.160Z,7.8
2019-04-29T01:46:41.313Z,7.8
2019-04-29T01:47:17.493Z,7.8
2019-04-29T01:47:53.153Z,7.8
2019-04-29T01:48:29.317Z,7.8
2019-04-29T01:49:05.565Z,7.8
2019-04-29T01:50:17.334Z,7.8
2019-04-29T01:50:53.510Z,7.8
2019-04-29T01:51:29.149Z,7.8
2019-04-29T01:52:05.333Z,7.8
2019-04-29T01:52:41.504Z,7.8
2019-04-29T01:53:53.345Z,7.8
2019-04-29T01:54:29.505Z,7.8
2019-04-29T01:55:05.317Z,7.8
2019-04-29T01:55:41.352Z,7.8
2019-04-29T01:56:17.011Z,7.8
2019-04-29T01:56:52.698Z,7.8
2019-04-29T01:57:28.330Z,7.8
2019-04-29T01:58:03.989Z,7.8
2019-04-29T01:59:14.723Z,7.8
2019-04-29T02:00:26.034Z,7.8
2019-04-29T02:01:01.710Z,7.8
2019-04-29T02:02:12.979Z,7.7
2019-04-29T02:02:47.580Z,7.7
2019-04-29T02:03:22.190Z,7.7
2019-04-29T02:03:56.796Z,7.7
2019-04-29T02:04:31.397Z,7.7
2019-04-29T02:05:06.035Z,7.7
2019-04-29T02:06:16.209Z,7.7
2019-04-29T02:06:49.806Z,7.7
2019-04-29T02:07:24.480Z,7.7
2019-04-29T02:07:59.036Z,7.7
2019-04-29T02:08:33.616Z,7.7
2019-04-29T02:09:42.291Z,7.7
2019-04-29T02:10:16.910Z,7.7
2019-04-29T02:10:51.506Z,7.7
2019-04-29T02:11:26.111Z,7.7
2019-04-29T02:12:00.716Z,7.7
2019-04-29T02:12:35.311Z,7.7
2019-04-29T02:13:44.515Z,7.8
2019-04-29T02:14:20.201Z,7.8
2019-04-29T02:14:55.825Z,7.8
2019-04-29T02:15:31.521Z,7.8
2019-04-29T02:16:07.113Z,7.8
2019-04-29T02:16:42.771Z,7.8
2019-04-29T02:17:18.561Z,7.8
2019-04-29T02:17:54.098Z,7.8
2019-04-29T02:18:29.200Z,7.8
2019-04-29T02:19:04.855Z,7.7
2019-04-29T02:20:14.057Z,7.7
2019-04-29T02:20:48.656Z,7.7
2019-04-29T02:21:23.264Z,7.7
2019-04-29T02:21:57.888Z,7.7
2019-04-29T02:22:32.479Z,7.7
2019-04-29T02:23:07.087Z,7.7
2019-04-29T02:23:41.698Z,7.7
2019-04-29T02:24:16.276Z,7.7
2019-04-29T02:24:50.887Z,7.8
2019-04-29T02:25:26.582Z,7.8
2019-04-29T02:26:02.199Z,7.8
2019-04-29T02:27:13.493Z,7.8
2019-04-29T02:27:49.151Z,7.8
2019-04-29T02:28:24.379Z,7.8
2019-04-29T02:28:59.935Z,7.7
2019-04-29T02:29:34.632Z,7.7
2019-04-29T02:30:43.738Z,7.7
2019-04-29T02:31:18.350Z,7.7
2019-04-29T02:31:52.960Z,7.7
2019-04-29T02:32:27.565Z,7.8
2019-04-29T02:33:03.230Z,7.7
2019-04-29T02:34:13.962Z,7.7
2019-04-29T02:34:48.689Z,7.7
2019-04-29T02:35:23.196Z,7.7
2019-04-29T02:35:58.348Z,7.7
2019-04-29T02:36:32.931Z,7.7
2019-04-29T02:37:08.105Z,7.8
2019-04-29T02:37:44.219Z,7.7
2019-04-29T02:38:18.833Z,7.7
2019-04-29T02:38:53.937Z,7.7
2019-04-29T02:39:30.215Z,7.7
2019-04-29T02:40:04.186Z,7.7
2019-04-29T02:41:13.938Z,7.7
2019-04-29T02:41:49.087Z,7.8
2019-04-29T02:42:25.265Z,7.8
2019-04-29T02:43:00.886Z,7.8
2019-04-29T02:43:37.116Z,7.8
2019-04-29T02:44:13.268Z,7.8
2019-04-29T02:44:48.887Z,7.8
2019-04-29T02:45:25.074Z,7.8
2019-04-29T02:46:01.313Z,7.8
2019-04-29T02:46:36.898Z,7.8
2019-04-29T02:47:13.055Z,7.8
2019-04-29T02:47:49.349Z,7.8
2019-04-29T02:48:28.551Z,7.8
2019-04-29T02:49:01.074Z,7.8
2019-04-29T02:49:37.310Z,7.8
2019-04-29T02:50:13.874Z,7.8
2019-04-29T02:50:49.090Z,7.9
2019-04-29T02:51:24.234Z,7.9
2019-04-29T02:51:58.801Z,7.9
2019-04-29T02:52:33.959Z,7.9
2019-04-29T02:53:45.228Z,7.8
2019-04-29T02:54:20.911Z,7.8
2019-04-29T02:54:57.066Z,7.8
2019-04-29T02:55:33.250Z,7.8
2019-04-29T02:56:08.887Z,7.8
2019-04-29T02:56:45.074Z,7.8
2019-04-29T02:57:21.234Z,7.8
2019-04-29T02:57:56.907Z,7.9
2019-04-29T02:58:32.074Z,7.8
2019-04-29T02:59:07.668Z,7.8
2019-04-29T02:59:43.361Z,7.8
2019-04-29T03:00:18.966Z,7.8
2019-04-29T03:00:54.788Z,7.8
2019-04-29T03:01:30.264Z,7.8
2019-04-29T03:02:05.949Z,7.8
2019-04-29T03:02:42.109Z,7.8
2019-04-29T03:03:53.406Z,7.8
2019-04-29T03:04:29.594Z,7.8
2019-04-29T03:05:05.813Z,7.8
2019-04-29T03:05:41.418Z,7.8
2019-04-29T03:06:17.589Z,7.8
2019-04-29T03:06:53.226Z,7.8
2019-04-29T03:07:29.421Z,7.8
2019-04-29T03:08:05.069Z,7.8
2019-04-29T03:09:16.966Z,7.8
2019-04-29T03:09:52.541Z,7.8
2019-04-29T03:10:28.735Z,7.8
2019-04-29T03:11:04.377Z,7.8
2019-04-29T03:12:15.801Z,7.8
2019-04-29T03:12:51.341Z,7.8
2019-04-29T03:13:27.541Z,7.8
2019-04-29T03:14:03.683Z,7.8
2019-04-29T03:15:15.505Z,7.8
2019-04-29T03:15:51.702Z,7.8
2019-04-29T03:16:27.323Z,7.8
2019-04-29T03:17:03.508Z,7.8
2019-04-29T03:18:15.336Z,7.8
2019-04-29T03:18:51.510Z,7.8
2019-04-29T03:19:27.715Z,7.7
2019-04-29T03:20:02.317Z,7.7
2019-04-29T03:20:37.482Z,7.7
2019-04-29T03:21:12.540Z,7.7
2019-04-29T03:22:22.288Z,7.7
2019-04-29T03:22:57.397Z,7.7
2019-04-29T03:23:33.677Z,7.7
2019-04-29T03:24:07.666Z,7.7
2019-04-29T03:24:42.257Z,7.7
2019-04-29T03:25:16.878Z,7.7
2019-04-29T03:25:52.038Z,7.7
2019-04-29T03:26:26.622Z,7.7
2019-04-29T03:27:01.752Z,7.7
2019-04-29T03:27:36.370Z,7.7
2019-04-29T03:28:11.444Z,7.7
2019-04-29T03:28:46.058Z,7.7
2019-04-29T03:29:21.193Z,7.7
2019-04-29T03:29:55.816Z,7.7
2019-04-29T03:30:30.912Z,7.7
2019-04-29T03:31:06.068Z,7.7
2019-04-29T03:32:15.761Z,7.7
2019-04-29T03:33:26.033Z,7.7
2019-04-29T03:34:00.641Z,7.7
2019-04-29T03:34:36.832Z,7.6
2019-04-29T03:35:11.967Z,7.6
2019-04-29T03:35:48.143Z,7.6
2019-04-29T03:36:23.759Z,7.6
2019-04-29T03:36:59.934Z,7.6
2019-04-29T03:37:36.127Z,7.7
2019-04-29T03:38:45.837Z,7.7
2019-04-29T03:39:56.105Z,7.7
2019-04-29T03:40:30.691Z,7.7
2019-04-29T03:41:05.332Z,7.7
2019-04-29T03:42:14.507Z,7.7
2019-04-29T03:42:49.131Z,7.7
2019-04-29T03:43:23.701Z,7.7
2019-04-29T03:43:58.401Z,7.7
2019-04-29T03:44:32.914Z,7.7
2019-04-29T03:45:07.666Z,7.7
2019-04-29T03:45:42.111Z,7.7
2019-04-29T03:46:16.714Z,7.7
2019-04-29T03:46:51.346Z,7.7
2019-04-29T03:47:25.955Z,7.7
2019-04-29T03:48:00.550Z,7.7
2019-04-29T03:48:35.144Z,7.7
2019-04-29T03:49:44.355Z,7.7
2019-04-29T03:50:18.949Z,7.7
2019-04-29T03:50:53.547Z,7.6
2019-04-29T03:51:29.224Z,7.7
2019-04-29T03:52:03.827Z,7.7
2019-04-29T03:52:38.459Z,7.7
2019-04-29T03:53:47.616Z,7.7
2019-04-29T03:54:22.241Z,7.7
2019-04-29T03:54:56.843Z,7.7
2019-04-29T03:55:39.363Z,7.7
2019-04-29T03:56:06.165Z,7.7
2019-04-29T03:57:15.234Z,7.7
2019-04-29T03:57:49.969Z,7.7
2019-04-29T03:58:24.452Z,7.7
2019-04-29T03:58:59.069Z,7.7
2019-04-29T03:59:33.643Z,7.7
2019-04-29T04:00:08.246Z,7.7
2019-04-29T04:00:44.164Z,7.7
2019-04-29T04:01:17.502Z,7.6
2019-04-29T04:01:52.600Z,7.6
2019-04-29T04:02:28.349Z,7.6
2019-04-29T04:03:03.884Z,7.6
2019-04-29T04:04:15.202Z,7.6
2019-04-29T04:04:50.848Z,7.6
2019-04-29T04:05:26.480Z,7.6
2019-04-29T04:06:02.144Z,7.6
2019-04-29T04:06:37.842Z,7.6
2019-04-29T04:07:12.933Z,7.6
2019-04-29T04:07:48.566Z,7.6
2019-04-29T04:08:24.212Z,7.6
2019-04-29T04:09:05.775Z,7.5
2019-04-29T04:09:34.472Z,7.5
2019-04-29T04:10:09.171Z,7.5
2019-04-29T04:10:43.683Z,7.5
2019-04-29T04:11:18.310Z,7.5
2019-04-29T04:11:52.887Z,7.5
2019-04-29T04:12:28.025Z,7.5
2019-04-29T04:13:02.636Z,7.5
2019-04-29T04:13:37.250Z,7.5
2019-04-29T04:14:12.349Z,7.5
2019-04-29T04:14:47.467Z,7.5
2019-04-29T04:15:22.622Z,7.5
2019-04-29T04:15:57.246Z,7.5
2019-04-29T04:16:32.331Z,7.5
2019-04-29T04:17:07.497Z,7.5
2019-04-29T04:17:43.050Z,7.5
2019-04-29T04:18:52.323Z,7.5
2019-04-29T04:19:27.497Z,7.4
2019-04-29T04:20:03.650Z,7.4
2019-04-29T04:20:39.268Z,7.4
2019-04-29T04:21:15.447Z,7.4
2019-04-29T04:21:51.624Z,7.4
2019-04-29T04:22:27.265Z,7.4
2019-04-29T04:23:03.470Z,7.4
2019-04-29T04:23:39.646Z,7.4
2019-04-29T04:24:15.297Z,7.4
2019-04-29T04:24:51.470Z,7.4
2019-04-29T04:25:27.636Z,7.4
2019-04-29T04:26:03.294Z,7.4
2019-04-29T04:26:39.453Z,7.4
2019-04-29T04:27:15.645Z,7.4
2019-04-29T04:27:51.324Z,7.4
2019-04-29T04:28:27.530Z,7.4
2019-04-29T04:29:04.827Z,7.4
2019-04-29T04:29:39.309Z,7.4
2019-04-29T04:30:15.525Z,7.4
2019-04-29T04:30:51.721Z,7.4
2019-04-29T04:31:27.331Z,7.4
2019-04-29T04:32:03.491Z,7.4
2019-04-29T04:32:39.793Z,7.4
2019-04-29T04:33:15.311Z,7.4
2019-04-29T04:33:51.484Z,7.4
2019-04-29T04:35:03.310Z,7.4
2019-04-29T04:35:39.477Z,7.4
2019-04-29T04:36:15.707Z,7.3
2019-04-29T04:36:50.276Z,7.3
2019-04-29T04:37:25.411Z,7.3
2019-04-29T04:38:00.535Z,7.4
2019-04-29T04:38:36.163Z,7.4
2019-04-29T04:39:12.334Z,7.4
2019-04-29T04:40:23.652Z,7.3
2019-04-29T04:40:58.251Z,7.3
2019-04-29T04:41:33.370Z,7.3
2019-04-29T04:42:08.510Z,7.3
2019-04-29T04:42:43.141Z,7.3
2019-04-29T04:43:17.706Z,7.3
2019-04-29T04:43:52.350Z,7.3
2019-04-29T04:44:26.922Z,7.3
2019-04-29T04:45:01.519Z,7.3
2019-04-29T04:45:36.128Z,7.3
2019-04-29T04:46:46.379Z,7.4
2019-04-29T04:47:21.515Z,7.4
2019-04-29T04:47:57.182Z,7.4
2019-04-29T04:48:32.827Z,7.4
2019-04-29T04:49:08.458Z,7.4
2019-04-29T04:49:44.118Z,7.4
2019-04-29T04:50:56.579Z,7.4
2019-04-29T04:52:06.762Z,7.4
2019-04-29T04:52:41.837Z,7.4
2019-04-29T04:53:53.154Z,7.4
2019-04-29T04:55:04.433Z,7.4
2019-04-29T04:55:40.694Z,7.4
2019-04-29T04:56:16.270Z,7.4
2019-04-29T04:56:52.453Z,7.4
2019-04-29T04:57:28.640Z,7.4
2019-04-29T04:58:04.280Z,7.4
2019-04-29T04:58:40.432Z,7.4
2019-04-29T04:59:16.649Z,7.4
2019-04-29T04:59:52.279Z,7.4
2019-04-29T05:00:28.472Z,7.5
2019-04-29T05:01:03.596Z,7.5
2019-04-29T05:01:38.835Z,7.5
2019-04-29T05:02:48.451Z,7.5
2019-04-29T05:03:23.676Z,7.5
2019-04-29T05:03:58.681Z,7.5
2019-04-29T05:04:33.299Z,7.5
2019-04-29T05:05:08.419Z,7.5
2019-04-29T05:06:53.282Z,7.5
2019-04-29T05:07:28.402Z,7.5
2019-04-29T05:08:03.550Z,7.5
2019-04-29T05:08:38.704Z,7.5
2019-04-29T05:09:13.264Z,7.5
2019-04-29T05:10:23.542Z,7.4
2019-04-29T05:10:59.717Z,7.4
2019-04-29T05:11:35.340Z,7.4
2019-04-29T05:12:13.943Z,7.4
2019-04-29T05:13:28.086Z,7.4
2019-04-29T05:13:59.543Z,7.4
2019-04-29T05:14:35.267Z,7.4
2019-04-29T05:15:11.362Z,7.4
2019-04-29T05:16:58.902Z,7.4
2019-04-29T05:17:33.991Z,7.4
2019-04-29T05:18:09.607Z,7.4
2019-04-29T05:19:55.541Z,7.3
2019-04-29T05:20:30.141Z,7.3
2019-04-29T05:21:04.724Z,7.3
2019-04-29T05:21:39.333Z,7.3
2019-04-29T05:22:13.949Z,7.3
2019-04-29T05:23:23.244Z,7.3
2019-04-29T05:23:57.777Z,7.3
2019-04-29T05:24:32.355Z,7.3
2019-04-29T05:25:06.954Z,7.3
2019-04-29T05:25:41.539Z,7.4
2019-04-29T05:26:52.840Z,7.4
2019-04-29T05:27:28.569Z,7.4
2019-04-29T05:28:03.649Z,7.4
2019-04-29T05:28:39.299Z,7.4
2019-04-29T05:30:26.233Z,7.4
2019-04-29T05:31:01.882Z,7.4
2019-04-29T05:31:37.535Z,7.4
2019-04-29T05:33:25.556Z,7.4
2019-04-29T05:34:01.844Z,7.4
2019-04-29T05:34:41.647Z,7.4
2019-04-29T05:35:13.554Z,7.4
2019-04-29T05:36:25.894Z,7.4
2019-04-29T05:37:01.598Z,7.4
2019-04-29T05:37:37.739Z,7.4
2019-04-29T05:40:00.873Z,7.3
2019-04-29T05:40:35.469Z,7.3
2019-04-29T05:41:10.622Z,7.3
2019-04-29T05:42:55.461Z,7.3
2019-04-29T05:43:31.891Z,7.4
2019-04-29T05:44:06.761Z,7.4
2019-04-29T05:45:54.234Z,7.4
2019-04-29T05:46:30.419Z,7.4
2019-04-29T05:47:06.052Z,7.4
2019-04-29T05:47:41.763Z,7.4
2019-04-29T05:48:53.566Z,7.4
2019-04-29T05:50:06.480Z,7.4
2019-04-29T05:50:40.023Z,7.4
2019-04-29T05:51:51.282Z,7.4
2019-04-29T05:52:29.895Z,7.4
2019-04-29T05:53:02.578Z,7.4
2019-04-29T05:53:38.217Z,7.4
2019-04-29T05:55:25.183Z,7.4
2019-04-29T05:56:00.407Z,7.4
2019-04-29T05:56:35.955Z,7.4
2019-04-29T05:57:11.615Z,7.4
2019-04-29T05:58:22.934Z,7.4
2019-04-29T05:58:58.570Z,7.4
2019-04-29T05:59:34.235Z,7.4
2019-04-29T06:00:09.897Z,7.4
2019-04-29T06:01:56.289Z,7.4
2019-04-29T06:02:35.080Z,7.3
2019-04-29T06:03:06.557Z,7.3
2019-04-29T06:03:44.094Z,7.4
2019-04-29T06:04:52.282Z,7.3
2019-04-29T06:05:26.029Z,7.4
2019-04-29T06:06:01.650Z,7.4
2019-04-29T06:06:37.299Z,7.4
2019-04-29T06:07:16.726Z,7.4
2019-04-29T06:08:23.753Z,7.4
2019-04-29T06:08:59.384Z,7.3
2019-04-29T06:09:34.000Z,7.3
2019-04-29T06:10:08.613Z,7.3
2019-04-29T06:10:43.221Z,7.4
2019-04-29T06:11:54.553Z,7.4
2019-04-29T06:12:30.149Z,7.4
2019-04-29T06:13:05.809Z,7.4
2019-04-29T06:13:41.463Z,7.4
2019-04-29T06:14:52.756Z,7.4
2019-04-29T06:15:27.920Z,7.4
2019-04-29T06:16:03.549Z,7.4
2019-04-29T06:16:39.178Z,7.4
2019-04-29T06:18:26.146Z,7.4
2019-04-29T06:19:05.707Z,7.4
2019-04-29T06:19:39.203Z,7.4
2019-04-29T06:20:12.987Z,7.4
2019-04-29T06:21:23.905Z,7.4
2019-04-29T06:21:59.542Z,7.4
2019-04-29T06:22:37.799Z,7.5
2019-04-29T06:23:09.820Z,7.5
2019-04-29T06:24:53.602Z,7.5
2019-04-29T06:25:28.194Z,7.5
2019-04-29T06:26:02.832Z,7.5
2019-04-29T06:26:37.420Z,7.5
2019-04-29T06:27:11.991Z,7.5
2019-04-29T06:28:55.813Z,7.5
2019-04-29T06:29:30.442Z,7.5
2019-04-29T06:30:05.032Z,7.5
2019-04-29T06:30:40.635Z,7.5
2019-04-29T06:32:24.795Z,7.5
2019-04-29T06:32:59.384Z,7.6
2019-04-29T06:33:34.725Z,7.6
2019-04-29T06:34:10.911Z,7.6
2019-04-29T06:35:22.753Z,7.6
2019-04-29T06:35:58.924Z,7.7
2019-04-29T06:36:33.534Z,7.7
2019-04-29T06:37:08.141Z,7.7
2019-04-29T06:37:42.745Z,7.7
2019-04-29T06:38:51.963Z,7.7
2019-04-29T06:39:26.561Z,7.8
2019-04-29T06:40:02.218Z,7.8
2019-04-29T06:40:37.827Z,7.8
2019-04-29T06:42:24.811Z,7.8
2019-04-29T06:43:00.971Z,7.8
2019-04-29T06:43:37.168Z,7.9
2019-04-29T06:44:16.517Z,7.9
2019-04-29T06:45:22.025Z,7.9
2019-04-29T06:45:57.148Z,7.9
2019-04-29T06:46:32.273Z,7.9
2019-04-29T06:47:06.873Z,7.9
2019-04-29T06:47:41.999Z,7.9
2019-04-29T06:48:52.241Z,7.9
2019-04-29T06:49:26.857Z,7.9
2019-04-29T06:50:01.991Z,7.9
2019-04-29T06:50:37.113Z,7.9
2019-04-29T06:51:12.221Z,7.9
2019-04-29T06:52:21.955Z,7.9
2019-04-29T06:52:57.094Z,7.9
2019-04-29T06:53:32.210Z,7.9
2019-04-29T06:54:06.821Z,8.0
2019-04-29T06:54:42.992Z,8.0
2019-04-29T06:55:54.859Z,8.0
2019-04-29T06:56:29.976Z,8.0
2019-04-29T06:57:05.745Z,8.0
2019-04-29T06:57:41.255Z,8.0
2019-04-29T06:58:53.078Z,8.0
2019-04-29T06:59:28.746Z,8.0
2019-04-29T07:00:04.408Z,8.0
2019-04-29T07:00:39.493Z,8.0
2019-04-29T07:02:26.468Z,8.0
2019-04-29T07:03:02.126Z,8.0
2019-04-29T07:03:37.753Z,8.0
2019-04-29T07:04:13.407Z,8.0
2019-04-29T07:05:24.717Z,8.1
2019-04-29T07:06:00.499Z,8.1
2019-04-29T07:06:34.046Z,8.1
2019-04-29T07:07:08.568Z,8.1
2019-04-29T07:07:42.592Z,8.1
2019-04-29T07:08:52.329Z,8.1
2019-04-29T07:09:26.934Z,8.1
2019-04-29T07:10:01.554Z,8.1
2019-04-29T07:10:36.179Z,8.1
2019-04-29T07:11:10.797Z,8.1
2019-04-29T07:12:54.585Z,8.1
2019-04-29T07:13:29.174Z,8.1
2019-04-29T07:14:03.756Z,8.1
2019-04-29T07:14:38.645Z,8.1
2019-04-29T07:15:13.856Z,8.1
2019-04-29T07:16:26.699Z,8.1
2019-04-29T07:17:00.722Z,8.0
2019-04-29T07:17:32.447Z,8.0
2019-04-29T07:18:08.677Z,8.0
2019-04-29T07:18:47.860Z,7.9
2019-04-29T07:19:52.929Z,7.9
2019-04-29T07:20:28.056Z,7.9
2019-04-29T07:21:03.210Z,7.9
2019-04-29T07:21:41.736Z,7.8
2019-04-29T07:22:13.996Z,7.8
2019-04-29T07:23:26.339Z,7.8
2019-04-29T07:24:01.971Z,7.8
2019-04-29T07:24:38.238Z,7.8
2019-04-29T07:25:14.323Z,7.9
2019-04-29T07:26:24.092Z,7.9
2019-04-29T07:27:02.615Z,7.9
2019-04-29T07:27:39.080Z,8.0
2019-04-29T07:28:13.674Z,8.0
2019-04-29T07:29:29.373Z,8.1
2019-04-29T07:29:56.914Z,8.1
2019-04-29T07:30:32.058Z,8.2
2019-04-29T07:31:10.095Z,8.2
2019-04-29T07:31:43.884Z,8.2
2019-04-29T07:32:54.171Z,8.3
2019-04-29T07:33:28.816Z,8.3
2019-04-29T07:34:03.332Z,8.4
2019-04-29T07:34:39.523Z,8.4
2019-04-29T07:35:14.620Z,8.4
2019-04-29T07:36:26.483Z,8.5
2019-04-29T07:37:01.606Z,8.5
2019-04-29T07:37:36.736Z,8.5
2019-04-29T07:38:11.336Z,8.6
2019-04-29T07:38:51.209Z,8.6
2019-04-29T07:39:26.662Z,8.6
2019-04-29T07:39:58.287Z,8.6
2019-04-29T07:40:33.416Z,8.6
2019-04-29T07:41:10.011Z,8.6
2019-04-29T07:42:24.534Z,8.7
2019-04-29T07:42:56.567Z,8.7
2019-04-29T07:43:31.682Z,8.7
2019-04-29T07:44:06.264Z,8.8
2019-04-29T07:44:43.908Z,8.8
2019-04-29T07:45:17.585Z,8.8
2019-04-29T07:45:53.218Z,8.8
2019-04-29T07:46:28.365Z,8.8
2019-04-29T07:47:04.539Z,8.9
2019-04-29T07:47:39.659Z,8.9
2019-04-29T07:48:14.800Z,8.9
2019-04-29T07:49:24.495Z,8.9
2019-04-29T07:49:59.281Z,9.0
2019-04-29T07:50:34.763Z,9.0
2019-04-29T07:51:10.419Z,9.0
2019-04-29T07:51:46.110Z,9.0
2019-04-29T07:52:21.711Z,9.0
2019-04-29T07:52:57.370Z,9.0
2019-04-29T07:53:37.359Z,9.0
2019-04-29T07:54:10.990Z,9.0
2019-04-29T07:54:47.716Z,9.0
2019-04-29T07:55:55.114Z,9.0
2019-04-29T07:56:30.765Z,9.0
2019-04-29T07:57:06.946Z,9.0
2019-04-29T07:57:42.057Z,9.0
2019-04-29T07:58:52.331Z,9.1
2019-04-29T07:59:26.924Z,9.1
2019-04-29T08:00:01.518Z,9.1
2019-04-29T08:00:36.709Z,9.1
2019-04-29T08:01:12.005Z,9.1
2019-04-29T08:02:21.495Z,9.1
2019-04-29T08:02:56.617Z,9.2
2019-04-29T08:03:32.816Z,9.2
2019-04-29T08:04:44.655Z,9.2
2019-04-29T08:05:55.400Z,9.3
2019-04-29T08:06:30.531Z,9.4
2019-04-29T08:07:06.711Z,9.4
2019-04-29T08:07:42.920Z,9.4
2019-04-29T08:08:56.351Z,9.4
2019-04-29T08:09:30.903Z,9.4
2019-04-29T08:10:22.370Z,9.5
2019-04-29T08:10:52.441Z,9.5
2019-04-29T08:11:15.260Z,9.5
2019-04-29T08:12:24.450Z,9.5
2019-04-29T08:12:59.046Z,9.5
2019-04-29T08:13:33.642Z,9.5
2019-04-29T08:14:42.847Z,9.5
2019-04-29T08:15:52.049Z,9.5
2019-04-29T08:16:26.652Z,9.5
2019-04-29T08:17:01.267Z,9.4
2019-04-29T08:17:36.913Z,9.4
2019-04-29T08:18:16.132Z,9.4
2019-04-29T08:19:24.496Z,9.4
2019-04-29T08:20:00.558Z,9.4
2019-04-29T08:20:35.351Z,9.4
2019-04-29T08:21:13.909Z,9.4
2019-04-29T08:21:49.672Z,9.4
2019-04-29T08:22:22.755Z,9.5
2019-04-29T08:22:58.313Z,9.5
2019-04-29T08:23:32.545Z,9.5
2019-04-29T08:24:41.100Z,9.6
2019-04-29T08:25:52.360Z,9.6
2019-04-29T08:26:28.011Z,9.6
2019-04-29T08:27:03.662Z,9.6
2019-04-29T08:27:39.944Z,9.6
2019-04-29T08:28:14.434Z,9.6
2019-04-29T08:29:25.746Z,9.6
2019-04-29T08:30:01.408Z,9.7
2019-04-29T08:30:36.013Z,9.7
2019-04-29T08:31:10.607Z,9.7
2019-04-29T08:31:45.209Z,9.7
2019-04-29T08:32:55.474Z,9.8
2019-04-29T08:33:31.102Z,9.8
2019-04-29T08:34:41.893Z,9.8
2019-04-29T08:35:17.578Z,9.9
2019-04-29T08:35:52.218Z,9.9
2019-04-29T08:36:26.760Z,9.8
2019-04-29T08:37:02.410Z,9.8
2019-04-29T08:37:38.051Z,9.8
2019-04-29T08:38:13.725Z,9.9
2019-04-29T08:39:24.964Z,9.9
2019-04-29T08:40:08.561Z,9.9
2019-04-29T08:40:34.286Z,9.9
2019-04-29T08:41:07.237Z,9.9
2019-04-29T08:41:41.840Z,9.9
2019-04-29T08:42:16.440Z,9.9
2019-04-29T08:43:25.687Z,9.9
2019-04-29T08:44:15.148Z,9.9
2019-04-29T08:44:35.921Z,9.9
2019-04-29T08:45:11.771Z,9.9
2019-04-29T08:45:45.645Z,10.0
2019-04-29T08:46:21.829Z,10.0
2019-04-29T08:46:57.996Z,10.0
2019-04-29T08:47:33.640Z,10.0
2019-04-29T08:48:09.304Z,10.0
2019-04-29T08:48:45.934Z,10.0
2019-04-29T08:49:21.633Z,10.0
2019-04-29T08:49:57.308Z,10.0
2019-04-29T08:50:32.955Z,10.0
2019-04-29T08:51:09.138Z,10.0
2019-04-29T08:51:44.802Z,10.0
2019-04-29T08:52:57.284Z,10.0
2019-04-29T08:53:32.784Z,10.0
2019-04-29T08:54:45.141Z,10.0
2019-04-29T08:55:55.924Z,10.1
2019-04-29T08:56:32.158Z,10.1
2019-04-29T08:57:06.172Z,10.1
2019-04-29T08:57:40.775Z,10.1
2019-04-29T08:58:15.374Z,10.1
2019-04-29T08:59:25.693Z,10.1
2019-04-29T08:59:59.184Z,10.1
2019-04-29T09:00:33.808Z,10.1
2019-04-29T09:01:08.398Z,10.2
2019-04-29T09:01:43.512Z,10.2
2019-04-29T09:02:54.828Z,10.2
2019-04-29T09:03:39.880Z,10.3
2019-04-29T09:04:05.079Z,10.3
2019-04-29T09:04:52.709Z,10.3
2019-04-29T09:05:14.273Z,10.3
2019-04-29T09:06:27.677Z,10.4
2019-04-29T09:07:11.937Z,10.4
2019-04-29T09:07:37.017Z,10.4
2019-04-29T09:08:13.595Z,10.5
2019-04-29T09:09:28.950Z,10.5
2019-04-29T09:10:01.534Z,10.5
2019-04-29T09:10:36.399Z,10.6
2019-04-29T09:21:42.051Z,10.8
2019-04-29T09:22:53.329Z,10.8
2019-04-29T09:23:28.990Z,10.8
2019-04-29T09:24:43.441Z,10.9
2019-04-29T09:25:16.553Z,10.9
2019-04-29T09:26:25.142Z,10.9
2019-04-29T09:26:59.850Z,10.9
2019-04-29T09:27:34.932Z,11.0
2019-04-29T09:28:14.243Z,11.0
2019-04-29T09:32:17.476Z,11.2
2019-04-29T09:32:53.113Z,11.2
2019-04-29T09:33:28.786Z,11.2
2019-04-29T09:34:06.625Z,11.3
2019-04-29T09:34:39.040Z,11.3
2019-04-29T09:35:13.652Z,11.3
2019-04-29T09:36:23.885Z,11.4
2019-04-29T09:36:59.089Z,11.4
2019-04-29T09:38:46.512Z,11.4
2019-04-29T09:41:08.591Z,11.5
2019-04-29T09:41:43.193Z,11.5
2019-04-29T09:42:18.299Z,11.5
2019-04-29T09:42:53.428Z,11.6
2019-04-29T09:43:32.664Z,11.6
2019-04-29T09:44:05.543Z,11.6
2019-04-29T09:44:44.616Z,11.6
2019-04-29T09:45:19.064Z,11.6
2019-04-29T09:45:53.777Z,11.6
2019-04-29T09:46:29.844Z,11.6
2019-04-29T09:47:08.421Z,11.6
2019-04-29T09:47:41.267Z,11.6
2019-04-29T09:48:17.529Z,11.6
2019-04-29T09:48:53.606Z,11.6
2019-04-29T09:49:29.278Z,11.6
2019-04-29T09:50:05.464Z,11.6
2019-04-29T09:50:41.630Z,11.6
2019-04-29T09:51:18.181Z,11.6
2019-04-29T09:51:53.453Z,11.6
2019-04-29T09:52:29.617Z,11.6
2019-04-29T09:53:05.290Z,11.6
2019-04-29T09:53:41.461Z,11.6
2019-04-29T09:54:53.287Z,11.7
2019-04-29T09:55:28.415Z,11.7
2019-04-29T09:56:03.538Z,11.8
2019-04-29T09:56:39.191Z,11.8
2019-04-29T09:57:15.398Z,11.8
2019-04-29T09:57:51.544Z,11.8
2019-04-29T09:58:27.179Z,11.9
2019-04-29T09:59:01.781Z,11.9